createdAt,value
2018-02-14T00:00:09.778Z,0.00
2018-02-14T00:01:09.730Z,0.00
2018-02-14T00:02:09.719Z,0.00
2018-02-14T00:03:09.709Z,0.00
2018-02-14T00:04:09.700Z,0.00
2018-02-14T00:05:09.690Z,0.00
2018-02-14T00:06:09.680Z,0.00
2018-02-14T00:07:09.669Z,0.00
2018-02-14T00:08:09.660Z,0.00
2018-02-14T00:09:09.651Z,0.00
2018-02-14T00:10:09.640Z,0.00
2018-02-14T00:11:09.629Z,0.00
2018-02-14T00:12:09.624Z,0.00
2018-02-14T00:13:09.611Z,0.00
2018-02-14T00:14:09.600Z,0.00
2018-02-14T00:15:09.591Z,0.00
2018-02-14T00:16:09.581Z,0.00
2018-02-14T00:17:09.571Z,0.00
2018-02-14T00:18:09.561Z,0.00
2018-02-14T00:19:09.550Z,0.00
2018-02-14T00:20:09.543Z,0.00
2018-02-14T00:21:09.532Z,0.00
2018-02-14T00:22:09.520Z,0.00
2018-02-14T00:23:09.510Z,0.00
2018-02-14T00:24:09.504Z,0.00
2018-02-14T00:25:09.492Z,0.00
2018-02-14T00:26:09.481Z,0.00
2018-02-14T00:27:09.471Z,0.00
2018-02-14T00:28:09.461Z,0.00
2018-02-14T00:29:09.453Z,0.00
2018-02-14T00:30:09.442Z,0.00
2018-02-14T00:31:09.431Z,0.00
2018-02-14T00:32:09.422Z,0.00
2018-02-14T00:33:09.412Z,0.00
2018-02-14T00:34:09.402Z,0.00
2018-02-14T00:35:09.392Z,0.00
2018-02-14T00:36:09.382Z,0.00
2018-02-14T00:37:09.372Z,0.00
2018-02-14T00:38:09.362Z,0.00
2018-02-14T00:39:09.352Z,0.00
2018-02-14T00:40:09.344Z,0.00
2018-02-14T00:41:09.333Z,0.00
2018-02-14T00:42:09.323Z,0.00
2018-02-14T00:43:09.313Z,0.00
2018-02-14T00:44:09.305Z,0.00
2018-02-14T00:45:09.292Z,0.00
2018-02-14T00:46:09.283Z,0.00
2018-02-14T00:47:09.274Z,0.00
2018-02-14T00:48:09.264Z,0.00
2018-02-14T00:49:09.255Z,0.00
2018-02-14T00:50:09.243Z,0.00
2018-02-14T00:51:09.235Z,0.00
2018-02-14T00:52:09.224Z,0.00
2018-02-14T00:53:09.214Z,0.00
2018-02-14T00:54:09.202Z,0.00
2018-02-14T00:55:09.193Z,0.00
2018-02-14T00:56:09.184Z,0.00
2018-02-14T00:57:09.175Z,0.00
2018-02-14T00:58:09.163Z,0.00
2018-02-14T00:59:09.154Z,0.00
2018-02-14T01:00:09.148Z,0.00
2018-02-14T01:01:09.137Z,0.00
2018-02-14T01:02:09.123Z,0.00
2018-02-14T01:03:09.113Z,0.00
2018-02-14T01:04:09.103Z,0.00
2018-02-14T01:05:09.094Z,0.00
2018-02-14T01:06:09.084Z,0.00
2018-02-14T01:08:09.064Z,0.00
2018-02-14T01:09:09.054Z,0.00
2018-02-14T01:10:09.043Z,0.00
2018-02-14T01:11:09.033Z,0.00
2018-02-14T01:12:09.024Z,0.00
2018-02-14T01:13:09.013Z,0.00
2018-02-14T01:14:09.002Z,0.00
2018-02-14T01:15:08.992Z,0.00
2018-02-14T01:16:08.983Z,0.00
2018-02-14T01:17:08.974Z,0.00
2018-02-14T01:18:08.963Z,0.00
2018-02-14T01:19:08.954Z,0.00
2018-02-14T01:20:08.942Z,0.00
2018-02-14T01:21:08.932Z,0.00
2018-02-14T01:22:08.921Z,0.00
2018-02-14T01:23:08.912Z,0.00
2018-02-14T01:24:08.903Z,0.00
2018-02-14T01:25:08.892Z,0.00
2018-02-14T01:26:08.881Z,0.00
2018-02-14T01:27:08.874Z,0.00
2018-02-14T01:28:08.861Z,0.00
2018-02-14T01:29:08.851Z,0.00
2018-02-14T01:30:08.840Z,0.00
2018-02-14T01:31:08.831Z,0.00
2018-02-14T01:32:08.820Z,0.00
2018-02-14T01:33:08.811Z,0.00
2018-02-14T01:34:08.799Z,0.00
2018-02-14T01:35:08.790Z,0.00
2018-02-14T01:36:08.780Z,0.00
2018-02-14T01:37:08.771Z,0.00
2018-02-14T01:38:08.759Z,0.00
2018-02-14T01:39:08.749Z,0.00
2018-02-14T01:40:08.740Z,0.00
2018-02-14T01:41:08.729Z,0.00
2018-02-14T01:42:08.718Z,0.00
2018-02-14T01:43:08.708Z,0.00
2018-02-14T01:44:08.700Z,0.00
2018-02-14T01:45:08.688Z,0.00
2018-02-14T01:46:08.679Z,0.00
2018-02-14T01:47:08.668Z,0.00
2018-02-14T01:48:08.658Z,0.00
2018-02-14T01:49:08.647Z,0.00
2018-02-14T01:50:08.636Z,0.00
2018-02-14T01:51:08.626Z,0.00
2018-02-14T01:52:08.616Z,0.00
2018-02-14T01:53:08.608Z,0.00
2018-02-14T01:54:08.595Z,0.00
2018-02-14T01:55:08.584Z,0.00
2018-02-14T01:56:08.575Z,0.00
2018-02-14T01:57:08.569Z,0.00
2018-02-14T01:58:08.554Z,0.00
2018-02-14T01:59:08.543Z,0.00
2018-02-14T02:00:08.534Z,0.00
2018-02-14T02:01:08.523Z,0.00
2018-02-14T02:02:08.512Z,0.00
2018-02-14T02:03:08.502Z,0.00
2018-02-14T02:04:08.491Z,0.00
2018-02-14T02:05:08.482Z,0.00
2018-02-14T02:06:08.470Z,0.00
2018-02-14T02:07:08.459Z,0.00
2018-02-14T02:08:08.450Z,0.00
2018-02-14T02:09:08.440Z,0.00
2018-02-14T02:10:08.430Z,0.00
2018-02-14T02:11:08.418Z,0.00
2018-02-14T02:12:08.409Z,0.00
2018-02-14T02:13:08.398Z,0.00
2018-02-14T02:14:08.388Z,0.00
2018-02-14T02:15:08.377Z,0.00
2018-02-14T02:16:08.369Z,0.00
2018-02-14T02:17:08.357Z,0.00
2018-02-14T02:18:08.345Z,0.00
2018-02-14T02:19:08.335Z,0.00
2018-02-14T02:20:08.325Z,0.00
2018-02-14T02:21:08.315Z,0.00
2018-02-14T02:22:08.303Z,0.00
2018-02-14T02:23:08.293Z,0.00
2018-02-14T02:24:08.283Z,0.00
2018-02-14T02:25:08.274Z,0.00
2018-02-14T02:26:08.263Z,0.00
2018-02-14T02:27:08.251Z,0.00
2018-02-14T02:28:08.242Z,0.00
2018-02-14T02:29:08.230Z,0.00
2018-02-14T02:30:08.220Z,0.00
2018-02-14T02:31:08.209Z,0.00
2018-02-14T02:32:08.199Z,0.00
2018-02-14T02:33:08.190Z,0.00
2018-02-14T02:34:08.177Z,0.00
2018-02-14T02:35:08.196Z,0.00
2018-02-14T02:36:08.157Z,0.00
2018-02-14T02:37:08.152Z,0.00
2018-02-14T02:38:08.136Z,0.00
2018-02-14T02:39:08.127Z,0.00
2018-02-14T02:40:08.116Z,0.00
2018-02-14T02:41:08.106Z,0.00
2018-02-14T02:42:08.093Z,0.00
2018-02-14T02:43:08.084Z,0.00
2018-02-14T02:44:08.075Z,0.00
2018-02-14T02:45:08.066Z,0.00
2018-02-14T02:46:08.052Z,0.00
2018-02-14T02:47:08.045Z,0.00
2018-02-14T02:48:08.033Z,0.00
2018-02-14T02:49:08.026Z,0.00
2018-02-14T02:50:08.012Z,0.00
2018-02-14T02:51:08.001Z,0.00
2018-02-14T02:52:07.992Z,0.00
2018-02-14T02:53:07.981Z,0.00
2018-02-14T02:54:07.970Z,0.00
2018-02-14T02:55:07.960Z,0.00
2018-02-14T02:56:07.952Z,0.00
2018-02-14T02:57:07.944Z,0.00
2018-02-14T02:58:07.930Z,0.00
2018-02-14T02:59:07.918Z,0.00
2018-02-14T03:00:07.909Z,0.00
2018-02-14T03:01:07.900Z,0.00
2018-02-14T03:02:07.888Z,0.00
2018-02-14T03:03:07.877Z,0.00
2018-02-14T03:04:07.868Z,0.00
2018-02-14T03:05:07.858Z,0.00
2018-02-14T03:06:07.846Z,0.00
2018-02-14T03:07:07.836Z,0.00
2018-02-14T03:08:07.827Z,0.00
2018-02-14T03:09:07.817Z,0.00
2018-02-14T03:10:07.809Z,0.00
2018-02-14T03:11:07.797Z,0.00
2018-02-14T03:12:07.786Z,0.00
2018-02-14T03:13:07.776Z,0.00
2018-02-14T03:14:07.764Z,0.00
2018-02-14T03:15:07.757Z,0.00
2018-02-14T03:16:07.744Z,0.00
2018-02-14T03:17:07.735Z,0.00
2018-02-14T03:18:07.725Z,0.00
2018-02-14T03:19:07.715Z,0.00
2018-02-14T03:20:07.704Z,0.00
2018-02-14T03:21:07.698Z,0.00
2018-02-14T03:22:07.683Z,0.00
2018-02-14T03:23:07.672Z,0.00
2018-02-14T03:24:07.664Z,0.00
2018-02-14T03:25:07.653Z,0.00
2018-02-14T03:26:07.643Z,0.00
2018-02-14T03:27:07.632Z,0.00
2018-02-14T03:28:07.622Z,0.00
2018-02-14T03:29:07.612Z,0.00
2018-02-14T03:30:07.602Z,0.00
2018-02-14T03:31:07.592Z,0.00
2018-02-14T03:32:07.581Z,0.00
2018-02-14T03:33:07.570Z,0.00
2018-02-14T03:34:07.561Z,0.00
2018-02-14T03:35:07.549Z,0.00
2018-02-14T03:36:07.539Z,0.00
2018-02-14T03:37:07.529Z,0.00
2018-02-14T03:38:07.519Z,0.00
2018-02-14T03:39:07.509Z,0.00
2018-02-14T03:40:07.499Z,0.00
2018-02-14T03:41:07.486Z,0.00
2018-02-14T03:42:07.476Z,0.00
2018-02-14T03:43:07.467Z,0.00
2018-02-14T03:44:07.457Z,0.00
2018-02-14T03:45:07.446Z,0.00
2018-02-14T03:46:07.434Z,0.00
2018-02-14T03:47:07.425Z,0.00
2018-02-14T03:48:07.414Z,0.00
2018-02-14T03:49:07.405Z,0.00
2018-02-14T03:50:07.395Z,0.00
2018-02-14T03:51:07.382Z,0.00
2018-02-14T03:52:07.373Z,0.00
2018-02-14T03:53:07.361Z,0.00
2018-02-14T03:54:07.352Z,0.00
2018-02-14T03:55:07.342Z,0.00
2018-02-14T03:56:07.331Z,0.00
2018-02-14T03:57:07.326Z,0.00
2018-02-14T03:58:07.309Z,0.00
2018-02-14T03:59:07.298Z,0.00
2018-02-14T04:00:07.290Z,0.00
2018-02-14T04:01:07.278Z,0.00
2018-02-14T04:02:07.267Z,0.00
2018-02-14T04:03:07.258Z,0.00
2018-02-14T04:04:07.248Z,0.00
2018-02-14T04:05:07.237Z,0.00
2018-02-14T04:06:07.226Z,0.00
2018-02-14T04:07:07.216Z,0.00
2018-02-14T04:08:07.205Z,0.00
2018-02-14T04:09:07.194Z,0.00
2018-02-14T04:10:07.184Z,0.00
2018-02-14T04:11:07.175Z,0.00
2018-02-14T04:12:07.164Z,0.00
2018-02-14T04:13:07.155Z,0.00
2018-02-14T04:14:07.142Z,0.00
2018-02-14T04:15:07.132Z,0.00
2018-02-14T04:16:07.161Z,0.00
2018-02-14T04:17:07.112Z,0.00
2018-02-14T04:18:07.104Z,0.00
2018-02-14T04:19:07.091Z,0.00
2018-02-14T04:20:07.080Z,0.00
2018-02-14T04:21:07.070Z,0.00
2018-02-14T04:22:07.062Z,0.00
2018-02-14T04:23:07.049Z,0.00
2018-02-14T04:24:07.039Z,0.00
2018-02-14T04:25:07.036Z,0.00
2018-02-14T04:26:07.019Z,0.00
2018-02-14T04:27:07.011Z,0.00
2018-02-14T04:28:06.997Z,0.00
2018-02-14T04:29:06.988Z,0.00
2018-02-14T04:30:06.978Z,0.00
2018-02-14T04:31:06.967Z,0.00
2018-02-14T04:32:06.957Z,0.00
2018-02-14T04:33:06.951Z,0.00
2018-02-14T04:34:06.935Z,0.00
2018-02-14T04:35:06.926Z,0.00
2018-02-14T04:36:06.915Z,0.00
2018-02-14T04:37:06.905Z,0.00
2018-02-14T04:38:06.895Z,0.00
2018-02-14T04:39:06.883Z,0.00
2018-02-14T04:40:06.873Z,0.00
2018-02-14T04:41:06.863Z,0.00
2018-02-14T04:42:06.853Z,0.00
2018-02-14T04:43:06.842Z,0.00
2018-02-14T04:44:06.831Z,0.00
2018-02-14T04:45:06.820Z,0.00
2018-02-14T04:46:06.810Z,0.00
2018-02-14T04:47:06.800Z,0.00
2018-02-14T04:48:06.789Z,0.00
2018-02-14T04:49:06.780Z,0.00
2018-02-14T04:50:06.768Z,0.00
2018-02-14T04:51:06.758Z,0.00
2018-02-14T04:52:06.748Z,0.00
2018-02-14T04:53:06.738Z,0.00
2018-02-14T04:54:06.726Z,0.00
2018-02-14T04:55:06.718Z,0.00
2018-02-14T04:56:06.707Z,0.00
2018-02-14T04:57:06.696Z,0.00
2018-02-14T04:58:06.685Z,0.00
2018-02-14T04:59:06.676Z,0.00
2018-02-14T05:00:06.664Z,0.00
2018-02-14T05:01:06.654Z,0.00
2018-02-14T05:02:06.643Z,0.00
2018-02-14T05:03:06.634Z,0.00
2018-02-14T05:04:06.623Z,0.00
2018-02-14T05:05:06.615Z,0.00
2018-02-14T05:06:06.600Z,0.00
2018-02-14T05:07:06.591Z,0.00
2018-02-14T05:08:06.580Z,0.00
2018-02-14T05:09:06.571Z,0.00
2018-02-14T05:10:06.561Z,0.00
2018-02-14T05:11:06.549Z,0.00
2018-02-14T05:12:06.538Z,0.00
2018-02-14T05:13:06.527Z,0.00
2018-02-14T05:14:06.516Z,0.00
2018-02-14T05:15:06.508Z,0.00
2018-02-14T05:16:06.496Z,0.00
2018-02-14T05:17:06.485Z,0.00
2018-02-14T05:18:06.475Z,0.00
2018-02-14T05:19:06.465Z,0.00
2018-02-14T05:20:06.454Z,0.00
2018-02-14T05:21:06.443Z,0.00
2018-02-14T05:22:06.434Z,0.00
2018-02-14T05:23:06.423Z,0.00
2018-02-14T05:24:06.412Z,0.00
2018-02-14T05:25:06.401Z,0.00
2018-02-14T05:26:06.391Z,0.00
2018-02-14T05:27:06.380Z,0.00
2018-02-14T05:28:06.370Z,0.00
2018-02-14T05:29:06.362Z,0.00
2018-02-14T05:30:06.391Z,0.00
2018-02-14T05:31:06.339Z,0.00
2018-02-14T05:32:06.327Z,0.00
2018-02-14T05:33:06.317Z,0.00
2018-02-14T05:34:06.306Z,0.00
2018-02-14T05:35:06.295Z,0.00
2018-02-14T05:36:06.286Z,0.00
2018-02-14T05:37:06.275Z,0.00
2018-02-14T05:38:06.264Z,0.00
2018-02-14T05:39:06.254Z,0.00
2018-02-14T05:40:06.243Z,0.00
2018-02-14T05:41:06.233Z,0.00
2018-02-14T05:42:06.223Z,0.00
2018-02-14T05:43:06.215Z,0.00
2018-02-14T05:44:06.201Z,0.00
2018-02-14T05:45:06.191Z,0.00
2018-02-14T05:46:06.183Z,0.00
2018-02-14T05:47:06.170Z,0.00
2018-02-14T05:48:06.159Z,0.00
2018-02-14T05:49:06.149Z,4.00
2018-02-14T05:50:06.138Z,4.00
2018-02-14T05:51:06.127Z,4.00
2018-02-14T05:52:06.117Z,0.00
2018-02-14T05:53:06.108Z,4.00
2018-02-14T05:54:06.095Z,0.00
2018-02-14T05:55:06.084Z,4.00
2018-02-14T05:56:06.074Z,4.00
2018-02-14T05:57:06.065Z,8.00
2018-02-14T05:58:06.052Z,8.00
2018-02-14T05:59:06.044Z,8.00
2018-02-14T06:00:06.032Z,12.00
2018-02-14T06:01:06.022Z,12.00
2018-02-14T06:02:06.012Z,16.00
2018-02-14T06:03:06.000Z,16.00
2018-02-14T06:04:05.990Z,20.00
2018-02-14T06:05:05.981Z,24.00
2018-02-14T06:06:05.968Z,28.00
2018-02-14T06:07:05.958Z,36.00
2018-02-14T06:08:05.948Z,40.00
2018-02-14T06:09:05.939Z,48.00
2018-02-14T06:10:05.926Z,56.00
2018-02-14T06:11:05.916Z,64.00
2018-02-14T06:12:05.905Z,76.00
2018-02-14T06:13:05.896Z,84.00
2018-02-14T06:14:05.883Z,96.00
2018-02-14T06:15:05.873Z,112.00
2018-02-14T06:16:05.863Z,128.00
2018-02-14T06:17:05.853Z,144.00
2018-02-14T06:18:05.841Z,160.00
2018-02-14T06:19:05.831Z,180.00
2018-02-14T06:20:05.821Z,196.00
2018-02-14T06:21:05.811Z,220.00
2018-02-14T06:22:05.798Z,244.00
2018-02-14T06:23:05.788Z,268.00
2018-02-14T06:24:05.784Z,292.00
2018-02-14T06:25:05.772Z,320.00
2018-02-14T06:26:05.757Z,352.00
2018-02-14T06:27:05.746Z,376.00
2018-02-14T06:28:05.737Z,408.00
2018-02-14T06:29:05.727Z,440.00
2018-02-14T06:30:05.715Z,472.00
2018-02-14T06:31:05.707Z,508.00
2018-02-14T06:32:05.693Z,540.00
2018-02-14T06:33:05.682Z,576.00
2018-02-14T06:34:05.672Z,608.00
2018-02-14T06:35:05.661Z,644.00
2018-02-14T06:36:05.651Z,676.00
2018-02-14T06:37:05.640Z,712.00
2018-02-14T06:38:05.628Z,748.00
2018-02-14T06:39:05.619Z,788.00
2018-02-14T06:40:05.608Z,824.00
2018-02-14T06:41:05.598Z,864.00
2018-02-14T06:42:05.587Z,904.00
2018-02-14T06:43:05.576Z,944.00
2018-02-14T06:44:05.567Z,988.00
2018-02-14T06:45:05.556Z,1028.00
2018-02-14T06:46:05.544Z,1068.00
2018-02-14T06:47:05.535Z,1112.00
2018-02-14T06:48:05.523Z,1156.00
2018-02-14T06:49:05.514Z,1392.00
2018-02-14T06:50:05.501Z,3240.00
2018-02-14T06:51:05.491Z,7160.00
2018-02-14T06:52:05.482Z,10124.00
2018-02-14T06:53:05.471Z,10944.00
2018-02-14T06:54:05.460Z,12608.00
2018-02-14T06:55:05.451Z,11424.00
2018-02-14T06:56:05.440Z,11424.00
2018-02-14T06:57:05.433Z,12896.00
2018-02-14T06:58:05.419Z,10460.00
2018-02-14T06:59:05.411Z,6796.00
2018-02-14T07:00:05.403Z,7848.00
2018-02-14T07:01:05.394Z,7960.00
2018-02-14T07:02:05.382Z,5024.00
2018-02-14T07:03:05.372Z,6216.00
2018-02-14T07:04:05.364Z,5892.00
2018-02-14T07:05:05.359Z,2888.00
2018-02-14T07:06:05.347Z,2196.00
2018-02-14T07:07:05.336Z,2304.00
2018-02-14T07:08:05.325Z,2888.00
2018-02-14T07:09:05.317Z,4664.00
2018-02-14T07:10:05.306Z,5376.00
2018-02-14T07:11:05.297Z,6776.00
2018-02-14T07:12:05.287Z,10432.00
2018-02-14T07:13:05.278Z,10236.00
2018-02-14T07:14:05.268Z,7240.00
2018-02-14T07:15:05.259Z,5464.00
2018-02-14T07:16:05.248Z,4412.00
2018-02-14T07:17:05.239Z,3516.00
2018-02-14T07:18:05.233Z,3028.00
2018-02-14T07:19:05.220Z,3340.00
2018-02-14T07:20:05.215Z,4016.00
2018-02-14T07:21:05.203Z,5276.00
2018-02-14T07:22:05.193Z,5204.00
2018-02-14T07:23:05.182Z,3412.00
2018-02-14T07:24:05.172Z,3224.00
2018-02-14T07:25:05.163Z,11380.00
2018-02-14T07:26:05.152Z,20480.00
2018-02-14T07:27:05.144Z,20864.00
2018-02-14T07:28:05.133Z,18528.00
2018-02-14T07:29:05.125Z,20704.00
2018-02-14T07:30:05.115Z,24544.00
2018-02-14T07:31:05.108Z,28512.00
2018-02-14T07:32:05.099Z,21920.00
2018-02-14T07:33:05.091Z,30944.00
2018-02-14T07:34:05.081Z,41120.00
2018-02-14T07:35:05.073Z,31328.00
2018-02-14T07:36:05.065Z,26112.00
2018-02-14T07:37:05.057Z,31936.00
2018-02-14T07:38:05.049Z,35840.00
2018-02-14T07:39:05.048Z,39808.00
2018-02-14T07:40:05.036Z,46048.00
2018-02-14T07:41:05.029Z,35456.00
2018-02-14T07:42:05.027Z,12900.00
2018-02-14T07:43:05.017Z,7332.00
2018-02-14T07:44:05.009Z,7576.00
2018-02-14T07:45:05.004Z,7784.00
2018-02-14T07:46:05.026Z,12888.00
2018-02-14T07:47:04.990Z,19904.00
2018-02-14T07:48:04.986Z,27840.00
2018-02-14T07:49:04.979Z,37984.00
2018-02-14T07:50:04.972Z,43168.00
2018-02-14T07:51:04.966Z,43840.00
2018-02-14T07:52:04.961Z,44928.00
2018-02-14T07:53:04.956Z,55360.00
2018-02-14T07:54:04.951Z,54112.00
2018-02-14T07:55:04.946Z,39040.00
2018-02-14T07:56:04.942Z,36384.00
2018-02-14T07:57:04.938Z,51712.00
2018-02-14T07:58:04.932Z,64256.00
2018-02-14T07:59:04.930Z,66976.00
2018-02-14T08:00:04.928Z,55168.00
2018-02-14T08:01:04.925Z,43904.00
2018-02-14T08:02:04.921Z,34528.00
2018-02-14T08:03:04.919Z,34080.00
2018-02-14T08:04:04.918Z,39840.00
2018-02-14T08:05:04.916Z,24000.00
2018-02-14T08:06:04.913Z,25056.00
2018-02-14T08:07:04.911Z,37888.00
2018-02-14T08:08:04.910Z,43712.00
2018-02-14T08:09:04.909Z,44800.00
2018-02-14T08:10:04.907Z,35648.00
2018-02-14T08:11:04.905Z,17056.00
2018-02-14T08:12:04.903Z,11648.00
2018-02-14T08:13:04.902Z,26336.00
2018-02-14T08:14:04.899Z,46272.00
2018-02-14T08:15:04.899Z,54368.00
2018-02-14T08:16:04.897Z,45280.00
2018-02-14T08:17:04.896Z,52480.00
2018-02-14T08:18:04.891Z,64960.00
2018-02-14T08:19:04.890Z,76384.00
2018-02-14T08:20:04.890Z,72224.00
2018-02-14T08:21:04.888Z,67168.00
2018-02-14T08:22:04.890Z,61728.00
2018-02-14T08:23:04.888Z,63648.00
2018-02-14T08:24:04.888Z,62272.00
2018-02-14T08:25:04.892Z,61120.00
2018-02-14T08:26:04.898Z,57312.00
2018-02-14T08:27:04.890Z,54720.00
2018-02-14T08:28:04.892Z,53696.00
2018-02-14T08:29:04.896Z,31296.00
2018-02-14T08:30:04.897Z,8588.00
2018-02-14T08:31:04.897Z,13008.00
2018-02-14T08:32:04.897Z,34944.00
2018-02-14T08:33:04.898Z,46176.00
2018-02-14T08:34:04.897Z,45792.00
2018-02-14T08:35:04.899Z,48480.00
2018-02-14T08:36:04.899Z,32224.00
2018-02-14T08:37:04.899Z,11208.00
2018-02-14T08:38:04.901Z,6228.00
2018-02-14T08:39:04.899Z,6144.00
2018-02-14T08:40:04.898Z,6476.00
2018-02-14T08:41:04.898Z,18112.00
2018-02-14T08:42:04.895Z,29568.00
2018-02-14T08:43:04.894Z,31136.00
2018-02-14T08:44:04.892Z,31552.00
2018-02-14T08:45:04.890Z,44032.00
2018-02-14T08:46:04.886Z,54208.00
2018-02-14T08:47:04.887Z,45312.00
2018-02-14T08:48:04.883Z,33248.00
2018-02-14T08:49:04.883Z,33664.00
2018-02-14T08:50:04.879Z,43072.00
2018-02-14T08:51:04.879Z,51552.00
2018-02-14T08:52:04.878Z,42944.00
2018-02-14T08:53:04.876Z,47968.00
2018-02-14T08:54:04.873Z,54752.00
2018-02-14T08:55:04.872Z,49024.00
2018-02-14T08:56:04.873Z,35936.00
2018-02-14T08:57:04.871Z,27392.00
2018-02-14T08:58:04.871Z,35072.00
2018-02-14T08:59:04.869Z,31936.00
2018-02-14T09:00:04.868Z,24896.00
2018-02-14T09:01:04.868Z,20480.00
2018-02-14T09:02:04.868Z,21792.00
2018-02-14T09:03:04.865Z,31104.00
2018-02-14T09:04:04.864Z,35424.00
2018-02-14T09:05:04.869Z,29920.00
2018-02-14T09:06:04.862Z,24640.00
2018-02-14T09:07:04.860Z,18720.00
2018-02-14T09:08:04.868Z,21440.00
2018-02-14T09:09:04.857Z,18464.00
2018-02-14T09:10:04.855Z,12104.00
2018-02-14T09:11:04.853Z,8104.00
2018-02-14T09:12:04.851Z,7348.00
2018-02-14T09:13:04.848Z,5940.00
2018-02-14T09:14:04.846Z,5872.00
2018-02-14T09:15:04.842Z,5844.00
2018-02-14T09:16:04.838Z,5844.00
2018-02-14T09:17:04.836Z,5856.00
2018-02-14T09:18:04.831Z,5968.00
2018-02-14T09:19:04.826Z,8568.00
2018-02-14T09:20:04.822Z,12996.00
2018-02-14T09:21:04.818Z,19712.00
2018-02-14T09:22:04.813Z,24640.00
2018-02-14T09:23:04.808Z,34944.00
2018-02-14T09:24:04.804Z,37376.00
2018-02-14T09:25:04.818Z,23200.00
2018-02-14T09:26:04.794Z,10916.00
2018-02-14T09:27:04.791Z,22528.00
2018-02-14T09:28:04.788Z,42464.00
2018-02-14T09:29:04.784Z,50368.00
2018-02-14T09:30:04.782Z,50880.00
2018-02-14T09:31:04.776Z,56480.00
2018-02-14T09:32:04.774Z,51328.00
2018-02-14T09:33:04.772Z,38464.00
2018-02-14T09:34:04.770Z,34720.00
2018-02-14T09:35:04.767Z,44896.00
2018-02-14T09:36:04.766Z,42816.00
2018-02-14T09:37:04.766Z,42432.00
2018-02-14T09:38:04.764Z,46688.00
2018-02-14T09:39:04.764Z,53728.00
2018-02-14T09:40:04.764Z,53952.00
2018-02-14T09:41:04.765Z,46176.00
2018-02-14T09:42:04.765Z,41408.00
2018-02-14T09:43:04.766Z,33792.00
2018-02-14T09:44:04.767Z,17312.00
2018-02-14T09:45:04.769Z,20832.00
2018-02-14T09:46:04.768Z,35520.00
2018-02-14T09:47:04.770Z,41792.00
2018-02-14T09:48:04.772Z,40704.00
2018-02-14T09:49:04.774Z,31680.00
2018-02-14T09:50:04.774Z,37088.00
2018-02-14T09:51:04.777Z,40256.00
2018-02-14T09:52:04.779Z,41184.00
2018-02-14T09:53:04.781Z,36736.00
2018-02-14T09:54:04.779Z,40736.00
2018-02-14T09:55:04.782Z,49984.00
2018-02-14T09:56:04.783Z,21824.00
2018-02-14T09:57:04.785Z,16352.00
2018-02-14T09:58:04.785Z,15872.00
2018-02-14T09:59:04.786Z,13756.00
2018-02-14T10:00:04.822Z,13788.00
2018-02-14T10:01:04.790Z,13884.00
2018-02-14T10:02:04.789Z,16128.00
2018-02-14T10:03:04.790Z,15712.00
2018-02-14T10:04:04.791Z,13984.00
2018-02-14T10:05:04.793Z,15156.00
2018-02-14T10:06:04.792Z,15872.00
2018-02-14T10:07:04.793Z,13380.00
2018-02-14T10:08:04.794Z,17184.00
2018-02-14T10:09:04.795Z,19648.00
2018-02-14T10:10:04.795Z,20544.00
2018-02-14T10:11:04.797Z,21248.00
2018-02-14T10:12:04.797Z,20896.00
2018-02-14T10:13:04.800Z,22368.00
2018-02-14T10:14:04.798Z,28256.00
2018-02-14T10:15:04.800Z,29536.00
2018-02-14T10:16:04.801Z,32704.00
2018-02-14T10:17:04.802Z,33376.00
2018-02-14T10:18:04.815Z,32544.00
2018-02-14T10:19:04.806Z,38208.00
2018-02-14T10:20:04.806Z,43424.00
2018-02-14T10:21:04.807Z,44256.00
2018-02-14T10:22:04.807Z,47808.00
2018-02-14T10:23:04.809Z,53856.00
2018-02-14T10:24:04.810Z,54976.00
2018-02-14T10:25:04.812Z,50304.00
2018-02-14T10:26:04.814Z,47424.00
2018-02-14T10:27:04.817Z,50784.00
2018-02-14T10:28:04.819Z,52640.00
2018-02-14T10:29:04.823Z,54784.00
2018-02-14T10:30:04.822Z,53824.00
2018-02-14T10:31:04.828Z,52192.00
2018-02-14T10:32:04.831Z,49280.00
2018-02-14T10:33:04.834Z,48480.00
2018-02-14T10:34:04.837Z,51552.00
2018-02-14T10:35:04.859Z,51584.00
2018-02-14T10:36:04.847Z,51840.00
2018-02-14T10:37:04.850Z,47552.00
2018-02-14T10:38:04.854Z,46592.00
2018-02-14T10:39:04.858Z,49248.00
2018-02-14T10:40:04.866Z,48160.00
2018-02-14T10:41:04.868Z,47808.00
2018-02-14T10:42:04.871Z,47328.00
2018-02-14T10:43:04.876Z,46752.00
2018-02-14T10:44:04.882Z,46688.00
2018-02-14T10:45:04.886Z,44992.00
2018-02-14T10:46:04.889Z,42656.00
2018-02-14T10:47:04.893Z,43904.00
2018-02-14T10:48:04.898Z,42752.00
2018-02-14T10:49:04.903Z,43392.00
2018-02-14T10:50:04.906Z,41536.00
2018-02-14T10:51:04.911Z,42784.00
2018-02-14T10:52:04.917Z,40480.00
2018-02-14T10:53:04.921Z,38656.00
2018-02-14T10:54:04.925Z,40064.00
2018-02-14T10:55:04.931Z,38624.00
2018-02-14T10:56:04.935Z,38816.00
2018-02-14T10:57:04.941Z,38656.00
2018-02-14T10:58:04.945Z,38112.00
2018-02-14T10:59:04.950Z,36672.00
2018-02-14T11:00:04.957Z,35808.00
2018-02-14T11:01:04.962Z,36704.00
2018-02-14T11:02:04.968Z,36416.00
2018-02-14T11:03:04.973Z,34848.00
2018-02-14T11:04:04.978Z,35264.00
2018-02-14T11:05:04.983Z,35872.00
2018-02-14T11:06:04.988Z,36640.00
2018-02-14T11:07:04.991Z,36064.00
2018-02-14T11:08:04.997Z,35200.00
2018-02-14T11:09:05.004Z,34528.00
2018-02-14T11:10:05.007Z,32608.00
2018-02-14T11:11:05.041Z,32128.00
2018-02-14T11:12:05.017Z,32160.00
2018-02-14T11:13:05.023Z,31840.00
2018-02-14T11:14:05.027Z,30048.00
2018-02-14T11:15:05.034Z,27424.00
2018-02-14T11:16:05.037Z,25408.00
2018-02-14T11:17:05.042Z,23712.00
2018-02-14T11:18:05.047Z,23552.00
2018-02-14T11:19:05.051Z,22496.00
2018-02-14T11:20:05.056Z,20544.00
2018-02-14T11:21:05.061Z,22944.00
2018-02-14T11:22:05.068Z,24256.00
2018-02-14T11:23:05.068Z,22848.00
2018-02-14T11:24:05.077Z,21216.00
2018-02-14T11:25:05.078Z,17504.00
2018-02-14T11:26:05.078Z,13652.00
2018-02-14T11:27:05.081Z,13400.00
2018-02-14T11:28:05.086Z,19680.00
2018-02-14T11:29:05.087Z,25440.00
2018-02-14T11:30:05.089Z,25248.00
2018-02-14T11:31:05.092Z,25344.00
2018-02-14T11:32:05.094Z,23456.00
2018-02-14T11:33:05.096Z,18624.00
2018-02-14T11:34:05.096Z,12800.00
2018-02-14T11:35:05.099Z,20416.00
2018-02-14T11:36:05.102Z,35872.00
2018-02-14T11:37:05.102Z,40352.00
2018-02-14T11:38:05.104Z,30976.00
2018-02-14T11:39:05.105Z,14572.00
2018-02-14T11:40:05.109Z,23168.00
2018-02-14T11:41:05.109Z,34688.00
2018-02-14T11:42:05.108Z,30560.00
2018-02-14T11:43:05.145Z,19392.00
2018-02-14T11:44:05.112Z,21664.00
2018-02-14T11:45:05.115Z,32608.00
2018-02-14T11:46:05.115Z,32512.00
2018-02-14T11:47:05.117Z,33664.00
2018-02-14T11:48:05.119Z,34432.00
2018-02-14T11:49:05.121Z,30880.00
2018-02-14T11:50:05.124Z,17216.00
2018-02-14T11:51:05.124Z,9664.00
2018-02-14T11:52:05.126Z,12732.00
2018-02-14T11:53:05.127Z,20608.00
2018-02-14T11:54:05.130Z,18880.00
2018-02-14T11:55:05.139Z,19680.00
2018-02-14T11:56:05.133Z,18016.00
2018-02-14T11:57:05.134Z,12264.00
2018-02-14T11:58:05.135Z,19488.00
2018-02-14T11:59:05.136Z,17440.00
2018-02-14T12:00:05.138Z,14268.00
2018-02-14T12:01:05.140Z,21376.00
2018-02-14T12:02:05.140Z,21824.00
2018-02-14T12:03:05.140Z,21856.00
2018-02-14T12:04:05.142Z,23040.00
2018-02-14T12:05:05.144Z,21248.00
2018-02-14T12:06:05.147Z,19968.00
2018-02-14T12:07:05.145Z,18560.00
2018-02-14T12:08:05.147Z,17472.00
2018-02-14T12:09:05.152Z,17856.00
2018-02-14T12:10:05.151Z,18816.00
2018-02-14T12:11:05.148Z,21920.00
2018-02-14T12:12:05.149Z,19232.00
2018-02-14T12:13:05.149Z,17504.00
2018-02-14T12:14:05.150Z,18080.00
2018-02-14T12:15:05.150Z,17312.00
2018-02-14T12:16:05.150Z,18880.00
2018-02-14T12:17:05.154Z,21600.00
2018-02-14T12:18:05.150Z,19776.00
2018-02-14T12:19:05.151Z,17760.00
2018-02-14T12:20:05.150Z,14528.00
2018-02-14T12:21:05.152Z,13320.00
2018-02-14T12:22:05.153Z,17824.00
2018-02-14T12:23:05.151Z,20640.00
2018-02-14T12:24:05.150Z,21568.00
2018-02-14T12:25:05.150Z,21056.00
2018-02-14T12:26:05.149Z,20288.00
2018-02-14T12:27:05.388Z,16960.00
2018-02-14T12:28:05.148Z,16288.00
2018-02-14T12:29:05.149Z,20096.00
2018-02-14T12:30:05.148Z,20768.00
2018-02-14T12:31:05.147Z,17152.00
2018-02-14T12:32:05.147Z,17696.00